createdAt,value
2022-12-14T00:01:21.490Z,99849.69
2022-12-14T00:03:48.968Z,99851.28
2022-12-14T00:06:18.926Z,99847.81
2022-12-14T00:08:48.904Z,99847.72
2022-12-14T00:11:16.185Z,99845.16
2022-12-14T00:13:44.014Z,99851.06
2022-12-14T00:16:17.611Z,99845.16
2022-12-14T00:18:48.622Z,99837.50
2022-12-14T00:21:15.392Z,99842.56
2022-12-14T00:23:45.252Z,99834.63
2022-12-14T00:26:18.832Z,99834.63
2022-12-14T00:28:46.749Z,99839.00
2022-12-14T00:31:13.716Z,99835.59
2022-12-14T00:33:40.664Z,99823.63
2022-12-14T00:36:09.450Z,99821.94
2022-12-14T00:38:36.959Z,99812.50
2022-12-14T00:41:04.684Z,99826.19
2022-12-14T00:43:32.299Z,99824.44
2022-12-14T00:45:58.927Z,99820.88
2022-12-14T00:48:26.804Z,99816.59
2022-12-14T00:50:55.072Z,99811.34
2022-12-14T00:53:23.101Z,99821.56
2022-12-14T00:55:50.583Z,99811.16
2022-12-14T00:58:20.071Z,99804.22
2022-12-14T01:00:47.453Z,99802.44
2022-12-14T01:03:14.589Z,99799.78
2022-12-14T01:05:41.131Z,99798.97
2022-12-14T01:08:08.048Z,99796.38
2022-12-14T01:10:35.005Z,99797.19
2022-12-14T01:13:01.519Z,99800.66
2022-12-14T01:15:28.284Z,99803.25
2022-12-14T01:17:54.855Z,99810.69
2022-12-14T01:20:21.370Z,99805.44
2022-12-14T01:22:48.008Z,99807.03
2022-12-14T01:25:14.550Z,99801.88
2022-12-14T01:27:41.013Z,99814.06
2022-12-14T01:30:07.828Z,99806.34
2022-12-14T01:32:34.781Z,99799.47
2022-12-14T01:35:01.543Z,99802.16
2022-12-14T01:37:28.859Z,99809.00
2022-12-14T01:39:55.894Z,99798.78
2022-12-14T01:42:22.673Z,99796.03
2022-12-14T01:44:58.206Z,99796.13
2022-12-14T01:47:30.988Z,99789.28
2022-12-14T01:50:00.631Z,99785.00
2022-12-14T01:52:43.972Z,99773.91
2022-12-14T01:55:24.883Z,99774.91
2022-12-14T01:58:22.425Z,99765.47
2022-12-14T02:00:52.535Z,99770.81
2022-12-14T02:03:27.221Z,99763.97
2022-12-14T02:05:59.465Z,99767.44
2022-12-14T02:08:26.634Z,99769.03
2022-12-14T02:10:55.317Z,99762.09
2022-12-14T02:13:29.406Z,99757.72
2022-12-14T02:15:56.393Z,99756.06
2022-12-14T02:18:26.028Z,99757.56
2022-12-14T02:21:15.549Z,99751.41
2022-12-14T02:23:54.038Z,99748.84
2022-12-14T02:27:09.555Z,99759.22
2022-12-14T02:29:45.983Z,99755.78
2022-12-14T02:32:44.543Z,99750.72
2022-12-14T02:35:42.442Z,99746.16
2022-12-14T02:38:17.206Z,99746.16
2022-12-14T02:40:52.483Z,99747.06
2022-12-14T02:43:25.257Z,99738.44
2022-12-14T02:46:13.655Z,99739.34
2022-12-14T02:48:47.930Z,99720.50
2022-12-14T02:51:20.598Z,99723.88
2022-12-14T02:54:13.844Z,99725.47
2022-12-14T02:56:51.604Z,99716.03
2022-12-14T02:59:19.359Z,99721.31
2022-12-14T03:01:50.029Z,99724.06
2022-12-14T03:04:18.608Z,99716.41
2022-12-14T03:06:59.386Z,99716.31
2022-12-14T03:09:29.081Z,99705.03
2022-12-14T03:12:01.049Z,99705.03
2022-12-14T03:14:34.348Z,99703.97
2022-12-14T03:17:07.548Z,99705.53
2022-12-14T03:19:42.402Z,99711.44
2022-12-14T03:22:15.281Z,99706.16
2022-12-14T03:24:45.474Z,99704.28
2022-12-14T03:27:18.520Z,99697.16
2022-12-14T03:29:53.154Z,99696.09
2022-12-14T03:32:24.650Z,99693.44
2022-12-14T03:35:18.657Z,99672.63
2022-12-14T03:37:57.729Z,99675.81
2022-12-14T03:40:33.729Z,99673.13
2022-12-14T03:43:15.295Z,99657.50
2022-12-14T03:45:53.290Z,99658.09
2022-12-14T03:48:32.815Z,99658.00
2022-12-14T03:51:16.316Z,99662.09
2022-12-14T03:54:19.209Z,99673.09
2022-12-14T03:57:13.977Z,99650.72
2022-12-14T03:59:53.801Z,99651.25
2022-12-14T04:02:37.604Z,99648.41
2022-12-14T04:05:14.805Z,99655.16
2022-12-14T04:08:03.822Z,99647.34
2022-12-14T04:10:57.073Z,99641.13
2022-12-14T04:13:49.154Z,99638.31
2022-12-14T04:16:39.132Z,99631.41
2022-12-14T04:19:11.038Z,99628.53
2022-12-14T04:21:44.510Z,99629.25
2022-12-14T04:24:39.754Z,99622.13
2022-12-14T04:27:20.489Z,99616.00
2022-12-14T04:29:56.874Z,99609.88
2022-12-14T04:32:32.184Z,99613.25
2022-12-14T04:35:09.404Z,99609.69
2022-12-14T04:37:38.780Z,99605.31
2022-12-14T04:40:10.561Z,99599.91
2022-12-14T04:43:02.772Z,99602.28
2022-12-14T04:45:43.329Z,99605.47
2022-12-14T04:48:17.479Z,99601.91
2022-12-14T04:50:52.515Z,99602.59
2022-12-14T04:53:25.537Z,99601.50
2022-12-14T04:56:01.873Z,99596.28
2022-12-14T04:58:30.559Z,99591.81
2022-12-14T05:01:29.200Z,99588.06
2022-12-14T05:04:34.526Z,99582.06
2022-12-14T05:07:20.966Z,99580.09
2022-12-14T05:10:00.194Z,99591.13
2022-12-14T05:12:38.976Z,99583.25
2022-12-14T05:15:19.967Z,99585.63
2022-12-14T05:17:47.265Z,99576.22
2022-12-14T05:20:17.211Z,99573.56
2022-12-14T05:22:44.575Z,99570.78
2022-12-14T05:25:11.631Z,99564.75
2022-12-14T05:27:38.503Z,99568.22
2022-12-14T05:30:06.743Z,99563.09
2022-12-14T05:32:33.851Z,99571.56
2022-12-14T05:35:00.448Z,99561.19
2022-12-14T05:37:27.063Z,99555.97
2022-12-14T05:39:54.529Z,99553.38
2022-12-14T05:42:21.487Z,99551.63
2022-12-14T05:44:48.045Z,99551.63
2022-12-14T05:47:15.483Z,99550.72
2022-12-14T05:49:42.041Z,99549.81
2022-12-14T05:52:08.692Z,99548.84
2022-12-14T05:54:35.258Z,99553.97
2022-12-14T05:57:01.832Z,99551.53
2022-12-14T05:59:28.462Z,99550.53
2022-12-14T06:01:55.092Z,99547.97
2022-12-14T06:04:21.808Z,99543.59
2022-12-14T06:06:48.469Z,99543.59
2022-12-14T06:09:16.246Z,99535.00
2022-12-14T06:11:44.347Z,99528.09
2022-12-14T06:14:11.957Z,99526.31
2022-12-14T06:16:42.923Z,99516.81
2022-12-14T06:19:10.710Z,99524.53
2022-12-14T06:21:39.225Z,99517.63
2022-12-14T06:24:07.123Z,99514.16
2022-12-14T06:26:40.842Z,99510.78
2022-12-14T06:29:10.502Z,99503.97
2022-12-14T06:31:38.220Z,99505.56
2022-12-14T06:34:04.823Z,99503.88
2022-12-14T06:36:34.519Z,99496.16
2022-12-14T06:39:07.735Z,99491.94
2022-12-14T06:41:34.993Z,99491.84
2022-12-14T06:44:06.825Z,99493.50
2022-12-14T06:46:34.079Z,99499.41
2022-12-14T06:49:00.632Z,99502.13
2022-12-14T06:51:27.594Z,99491.03
2022-12-14T06:53:55.975Z,99493.69
2022-12-14T06:56:24.528Z,99482.81
2022-12-14T06:58:52.600Z,99472.63
2022-12-14T07:01:21.151Z,99475.66
2022-12-14T07:03:49.946Z,99470.00
2022-12-14T07:06:17.056Z,99466.72
2022-12-14T07:08:44.005Z,99461.31
2022-12-14T07:11:13.262Z,99458.25
2022-12-14T07:13:40.493Z,99458.78
2022-12-14T07:16:08.325Z,99457.69
2022-12-14T07:18:34.938Z,99453.28
2022-12-14T07:21:07.416Z,99455.94
2022-12-14T07:23:37.263Z,99444.94
2022-12-14T07:26:16.838Z,99450.28
2022-12-14T07:28:44.599Z,99445.22
2022-12-14T07:31:19.941Z,99444.44
2022-12-14T07:33:46.815Z,99445.41
2022-12-14T07:36:18.457Z,99444.81
2022-12-14T07:38:46.824Z,99440.66
2022-12-14T07:41:22.039Z,99441.81
2022-12-14T07:43:50.530Z,99438.66
2022-12-14T07:46:23.285Z,99444.06
2022-12-14T07:48:52.352Z,99437.41
2022-12-14T07:51:21.715Z,99429.25
2022-12-14T07:53:49.246Z,99432.13
2022-12-14T07:56:19.106Z,99432.50
2022-12-14T07:58:45.737Z,99426.84
2022-12-14T08:01:13.869Z,99431.44
2022-12-14T08:03:42.294Z,99420.59
2022-12-14T08:06:10.655Z,99424.53
2022-12-14T08:08:37.633Z,99430.06
2022-12-14T08:11:04.814Z,99420.91
2022-12-14T08:13:32.664Z,99421.34
2022-12-14T08:16:04.955Z,99416.50
2022-12-14T08:18:33.290Z,99415.97
2022-12-14T08:21:00.982Z,99409.31
2022-12-14T08:23:28.200Z,99411.34
2022-12-14T08:25:56.045Z,99410.88
2022-12-14T08:28:23.246Z,99401.91
2022-12-14T08:30:50.724Z,99410.94
2022-12-14T08:33:18.708Z,99411.47
2022-12-14T08:35:45.736Z,99409.31
2022-12-14T08:38:12.240Z,99403.59
2022-12-14T08:40:40.127Z,99397.00
2022-12-14T08:43:09.122Z,99402.50
2022-12-14T08:45:36.324Z,99401.06
2022-12-14T08:48:03.569Z,99400.69
2022-12-14T08:50:30.182Z,99397.66
2022-12-14T08:52:56.869Z,99398.94
2022-12-14T08:55:28.262Z,99399.34
2022-12-14T08:57:56.983Z,99397.25
2022-12-14T09:00:23.655Z,99402.00
2022-12-14T09:02:51.780Z,99403.31
2022-12-14T09:05:18.514Z,99399.50
2022-12-14T09:07:45.318Z,99399.09
2022-12-14T09:10:12.867Z,99400.34
2022-12-14T09:12:39.488Z,99405.91
2022-12-14T09:15:06.899Z,99408.00
2022-12-14T09:17:34.412Z,99410.09
2022-12-14T09:20:01.000Z,99405.31
2022-12-14T09:22:27.671Z,99395.22
2022-12-14T09:24:54.558Z,99395.63
2022-12-14T09:27:22.612Z,99402.91
2022-12-14T09:29:52.228Z,99402.47
2022-12-14T09:32:18.933Z,99397.69
2022-12-14T09:34:45.677Z,99395.41
2022-12-14T09:37:12.944Z,99414.59
2022-12-14T09:39:39.691Z,99400.13
2022-12-14T09:42:32.237Z,99401.16
2022-12-14T09:45:20.153Z,99397.03
2022-12-14T09:48:10.426Z,99401.47
2022-12-14T09:50:38.684Z,99399.81
2022-12-14T09:53:13.028Z,99382.53
2022-12-14T09:55:46.086Z,99381.72
2022-12-14T09:58:32.871Z,99379.31
2022-12-14T10:01:24.669Z,99380.16
2022-12-14T10:04:00.362Z,99381.94
2022-12-14T10:06:50.449Z,99373.47
2022-12-14T10:09:34.551Z,99373.75
2022-12-14T10:12:41.957Z,99373.97
2022-12-14T10:15:24.692Z,99375.72
2022-12-14T10:18:33.868Z,99367.16
2022-12-14T10:21:01.111Z,99370.50
2022-12-14T10:23:27.853Z,99364.47
2022-12-14T10:26:01.002Z,99360.16
2022-12-14T10:28:36.275Z,99364.47
2022-12-14T10:31:07.888Z,99369.66
2022-12-14T10:33:34.517Z,99364.59
2022-12-14T10:36:30.329Z,99365.44
2022-12-14T10:39:02.313Z,99368.03
2022-12-14T10:42:16.720Z,99365.50
2022-12-14T10:48:05.877Z,99364.78
2022-12-14T10:50:57.722Z,99356.34
2022-12-14T10:53:35.709Z,99353.97
2022-12-14T10:56:14.062Z,99356.63
2022-12-14T10:58:40.677Z,99348.19
2022-12-14T11:01:13.638Z,99351.72
2022-12-14T11:03:42.277Z,99334.59
2022-12-14T11:06:19.118Z,99342.56
2022-12-14T11:08:48.910Z,99332.41
2022-12-14T11:11:19.767Z,99330.09
2022-12-14T11:14:10.017Z,99332.16
2022-12-14T11:16:40.113Z,99333.22
2022-12-14T11:19:17.278Z,99328.34
2022-12-14T11:21:44.721Z,99330.31
2022-12-14T11:24:28.747Z,99326.25
2022-12-14T11:27:00.474Z,99317.94
2022-12-14T11:29:36.709Z,99320.81
2022-12-14T11:32:04.730Z,99318.44
2022-12-14T11:34:38.179Z,99320.34
2022-12-14T11:37:22.060Z,99318.03
2022-12-14T11:40:05.474Z,99320.06
2022-12-14T11:42:33.389Z,99317.75
2022-12-14T11:45:28.560Z,99312.78
2022-12-14T11:48:13.455Z,99307.88
2022-12-14T11:50:41.191Z,99305.44
2022-12-14T11:53:16.042Z,99300.47
2022-12-14T11:55:47.712Z,99298.00
2022-12-14T11:58:25.371Z,99298.13
2022-12-14T12:00:58.623Z,99295.59
2022-12-14T12:03:35.243Z,99287.88
2022-12-14T12:06:07.168Z,99290.59
2022-12-14T12:08:37.487Z,99292.47
2022-12-14T12:11:14.925Z,99283.16
2022-12-14T12:13:45.766Z,99291.97
2022-12-14T12:16:21.568Z,99292.91
2022-12-14T12:18:56.556Z,99288.72
2022-12-14T12:21:31.601Z,99285.44
2022-12-14T12:24:23.419Z,99285.59
2022-12-14T12:26:53.892Z,99271.97
2022-12-14T12:29:37.432Z,99273.81
2022-12-14T12:32:10.360Z,99271.41
2022-12-14T12:34:46.161Z,99275.81
2022-12-14T12:37:28.270Z,99262.09
2022-12-14T12:40:00.573Z,99267.38
2022-12-14T12:42:46.710Z,99265.75
2022-12-14T12:45:25.708Z,99269.28
2022-12-14T12:48:31.355Z,99267.69
2022-12-14T12:51:03.963Z,99273.91
2022-12-14T12:53:44.032Z,99268.84
2022-12-14T12:56:21.846Z,99276.63
2022-12-14T12:58:52.853Z,99279.28
2022-12-14T13:01:51.202Z,99270.72
2022-12-14T13:04:28.027Z,99268.16
2022-12-14T13:07:03.612Z,99264.78
2022-12-14T13:09:36.312Z,99258.75
2022-12-14T13:12:05.453Z,99260.53
2022-12-14T13:14:38.616Z,99259.69
2022-12-14T13:17:14.299Z,99259.69
2022-12-14T13:19:51.001Z,99262.28
2022-12-14T13:22:26.670Z,99258.75
2022-12-14T13:24:59.607Z,99258.78
2022-12-14T13:27:50.705Z,99250.97
2022-12-14T13:30:41.935Z,99245.75
2022-12-14T13:33:20.715Z,99249.31
2022-12-14T13:35:50.157Z,99240.06
2022-12-14T13:38:56.872Z,99242.09
2022-12-14T13:41:50.703Z,99241.09
2022-12-14T13:44:17.165Z,99245.16
2022-12-14T13:46:43.946Z,99246.81
2022-12-14T13:49:21.197Z,99240.72
2022-12-14T13:51:50.454Z,99244.91
2022-12-14T13:54:40.738Z,99254.25
2022-12-14T13:57:09.169Z,99255.03
2022-12-14T13:59:40.353Z,99247.22
2022-12-14T14:02:29.707Z,99245.44
2022-12-14T14:05:14.896Z,99236.69
2022-12-14T14:08:01.663Z,99235.69
2022-12-14T14:10:37.182Z,99251.34
2022-12-14T14:13:28.410Z,99248.63
2022-12-14T14:16:26.996Z,99245.09
2022-12-14T14:19:10.267Z,99243.34
2022-12-14T14:24:56.897Z,99243.22
2022-12-14T14:27:27.460Z,99244.00
2022-12-14T14:29:55.355Z,99243.03
2022-12-14T14:32:38.484Z,99237.69
2022-12-14T14:35:24.914Z,99246.22
2022-12-14T14:38:01.871Z,99243.53
2022-12-14T14:40:51.331Z,99246.03
2022-12-14T14:43:37.573Z,99252.91
2022-12-14T14:46:07.287Z,99251.03
2022-12-14T14:48:54.510Z,99260.50
2022-12-14T14:51:26.405Z,99262.09
2022-12-14T14:54:44.802Z,99268.03
2022-12-14T14:57:43.130Z,99270.47
2022-12-14T15:00:11.234Z,99263.44
2022-12-14T15:02:41.771Z,99271.16
2022-12-14T15:05:41.560Z,99271.06
2022-12-14T15:08:05.307Z,99265.63
2022-12-14T15:10:41.873Z,99270.69
2022-12-14T15:13:19.118Z,99273.97
2022-12-14T15:15:48.387Z,99275.63
2022-12-14T15:18:14.948Z,99275.44
2022-12-14T15:20:54.464Z,99277.91
2022-12-14T15:23:21.894Z,99273.34
2022-12-14T15:26:00.534Z,99276.72
2022-12-14T15:28:28.783Z,99277.41
2022-12-14T15:30:58.137Z,99285.94
2022-12-14T15:33:29.396Z,99283.22
2022-12-14T15:36:04.904Z,99283.97
2022-12-14T15:38:33.447Z,99286.38
2022-12-14T15:41:05.791Z,99279.25
2022-12-14T15:43:33.913Z,99285.13
2022-12-14T15:46:04.728Z,99280.72
2022-12-14T15:48:34.749Z,99281.34
2022-12-14T15:51:07.405Z,99276.78
2022-12-14T15:53:37.435Z,99270.53
2022-12-14T15:56:22.452Z,99279.78
2022-12-14T15:58:50.500Z,99276.13
2022-12-14T16:01:27.402Z,99281.19
2022-12-14T16:03:56.678Z,99284.44
2022-12-14T16:06:26.677Z,99284.34
2022-12-14T16:09:05.234Z,99283.38
2022-12-14T16:11:37.556Z,99289.22
2022-12-14T16:14:31.470Z,99286.53
2022-12-14T16:16:59.139Z,99292.38
2022-12-14T16:19:33.658Z,99296.59
2022-12-14T16:22:09.134Z,99298.03
2022-12-14T16:24:37.449Z,99291.84
2022-12-14T16:27:04.703Z,99293.41
2022-12-14T16:29:33.194Z,99292.38
2022-12-14T16:32:05.343Z,99305.28
2022-12-14T16:34:33.405Z,99305.22
2022-12-14T16:37:31.557Z,99308.66
2022-12-14T16:39:52.805Z,99305.84
2022-12-14T16:42:24.804Z,99304.03
2022-12-14T16:44:55.070Z,99305.59
2022-12-14T16:47:29.012Z,99303.66
2022-12-14T16:50:01.827Z,99297.41
2022-12-14T16:52:36.505Z,99290.31
2022-12-14T16:55:20.582Z,99289.31
2022-12-14T16:57:56.107Z,99290.88
2022-12-14T17:00:27.116Z,99296.69
2022-12-14T17:02:59.878Z,99291.34
2022-12-14T17:05:32.910Z,99286.66
2022-12-14T17:08:00.094Z,99292.53
2022-12-14T17:10:27.142Z,99293.19
2022-12-14T17:12:58.911Z,99293.94
2022-12-14T17:15:28.391Z,99305.03
2022-12-14T17:17:57.441Z,99301.56
2022-12-14T17:20:27.529Z,99305.75
2022-12-14T17:22:58.129Z,99297.03
2022-12-14T17:25:28.751Z,99310.78
2022-12-14T17:27:55.966Z,99309.97
2022-12-14T17:30:24.160Z,99315.97
2022-12-14T17:32:53.341Z,99320.22
2022-12-14T17:35:26.476Z,99322.69
2022-12-14T17:37:53.682Z,99316.38
2022-12-14T17:40:20.333Z,99313.72
2022-12-14T17:42:56.148Z,99317.00
2022-12-14T17:45:27.128Z,99315.16
2022-12-14T17:47:54.521Z,99310.72
2022-12-14T17:50:22.606Z,99313.16
2022-12-14T17:52:50.335Z,99316.47
2022-12-14T17:55:18.090Z,99312.84
2022-12-14T17:57:46.105Z,99316.03
2022-12-14T18:00:46.891Z,99327.03
2022-12-14T18:03:15.961Z,99327.75
2022-12-14T18:05:48.369Z,99327.63
2022-12-14T18:08:17.030Z,99324.22
2022-12-14T18:10:43.933Z,99318.84
2022-12-14T18:13:11.987Z,99325.38
2022-12-14T18:15:41.796Z,99316.53
2022-12-14T18:18:08.622Z,99320.66
2022-12-14T18:20:36.195Z,99320.59
2022-12-14T18:23:02.765Z,99316.22
2022-12-14T18:25:29.308Z,99308.41
2022-12-14T18:27:56.354Z,99311.72
2022-12-14T18:30:23.046Z,99314.13
2022-12-14T18:32:49.908Z,99312.25
2022-12-14T18:35:26.034Z,99315.28
2022-12-14T18:37:52.669Z,99327.06
2022-12-14T18:40:25.846Z,99337.25
2022-12-14T18:42:52.857Z,99339.69
2022-12-14T18:45:34.963Z,99329.84
2022-12-14T18:48:01.969Z,99334.69
2022-12-14T18:50:29.184Z,99339.78
2022-12-14T18:52:57.263Z,99336.31
2022-12-14T18:55:29.471Z,99335.25
2022-12-14T18:57:59.631Z,99346.47
2022-12-14T19:00:30.161Z,99354.03
2022-12-14T19:02:58.380Z,99352.19
2022-12-14T19:05:26.456Z,99351.31
2022-12-14T19:07:54.314Z,99359.84
2022-12-14T19:10:24.086Z,99353.75
2022-12-14T19:12:51.214Z,99356.13
2022-12-14T19:15:30.137Z,99355.16
2022-12-14T19:17:57.091Z,99355.97
2022-12-14T19:20:25.146Z,99355.91
2022-12-14T19:22:54.427Z,99355.84
2022-12-14T19:25:24.748Z,99360.03
2022-12-14T19:30:39.922Z,99352.09
2022-12-14T19:33:06.751Z,99351.03
2022-12-14T19:35:33.294Z,99362.09
2022-12-14T19:38:00.116Z,99362.75
2022-12-14T19:40:26.738Z,99366.84
2022-12-14T19:42:54.064Z,99362.47
2022-12-14T19:45:20.665Z,99360.72
2022-12-14T19:47:47.583Z,99364.00
2022-12-14T19:50:15.455Z,99359.66
2022-12-14T19:52:42.918Z,99357.88
2022-12-14T19:55:11.368Z,99347.41
2022-12-14T19:57:39.461Z,99353.38
2022-12-14T20:00:08.079Z,99345.66
2022-12-14T20:02:38.609Z,99350.72
2022-12-14T20:05:06.153Z,99346.28
2022-12-14T20:07:32.822Z,99346.28
2022-12-14T20:09:59.644Z,99353.84
2022-12-14T20:12:26.716Z,99345.16
2022-12-14T20:14:53.319Z,99355.28
2022-12-14T20:17:20.008Z,99363.81
2022-12-14T20:19:46.609Z,99368.09
2022-12-14T20:22:14.857Z,99369.78
2022-12-14T20:24:42.392Z,99363.56
2022-12-14T20:27:09.083Z,99363.47
2022-12-14T20:29:40.400Z,99358.25
2022-12-14T20:32:07.033Z,99367.66
2022-12-14T20:34:34.020Z,99364.22
2022-12-14T20:37:00.580Z,99371.94
2022-12-14T20:39:27.068Z,99359.00
2022-12-14T20:41:53.587Z,99370.97
2022-12-14T20:44:20.231Z,99370.97
2022-12-14T20:46:47.013Z,99374.34
2022-12-14T20:49:19.183Z,99367.34
2022-12-14T20:51:47.360Z,99379.25
2022-12-14T20:54:17.039Z,99367.97
2022-12-14T20:56:45.101Z,99386.81
2022-12-14T20:59:16.149Z,99377.28
2022-12-14T21:01:43.778Z,99384.94
2022-12-14T21:04:10.509Z,99389.94
2022-12-14T21:06:39.675Z,99392.50
2022-12-14T21:09:11.513Z,99385.56
2022-12-14T21:12:07.235Z,99389.75
2022-12-14T21:14:46.921Z,99396.69
2022-12-14T21:17:15.155Z,99391.44
2022-12-14T21:19:42.091Z,99408.59
2022-12-14T21:22:12.905Z,99406.00
2022-12-14T21:27:28.314Z,99411.78
2022-12-14T21:29:55.007Z,99415.97
2022-12-14T21:32:22.494Z,99424.50
2022-12-14T21:34:49.800Z,99423.59
2022-12-14T21:37:16.843Z,99417.47
2022-12-14T21:39:51.864Z,99420.03
2022-12-14T21:42:21.982Z,99428.47
2022-12-14T21:44:50.157Z,99437.81
2022-12-14T21:47:20.362Z,99442.97
2022-12-14T21:49:47.644Z,99441.91
2022-12-14T21:52:23.224Z,99450.34
2022-12-14T21:54:50.536Z,99444.28
2022-12-14T21:57:42.735Z,99452.75
2022-12-14T22:00:10.900Z,99452.75
2022-12-14T22:02:42.108Z,99450.06
2022-12-14T22:05:10.040Z,99454.50
2022-12-14T22:07:36.782Z,99450.94
2022-12-14T22:10:03.819Z,99447.41
2022-12-14T22:12:30.542Z,99449.09
2022-12-14T22:14:57.331Z,99448.28
2022-12-14T22:17:24.029Z,99451.84
2022-12-14T22:19:52.079Z,99456.00
2022-12-14T22:22:18.986Z,99446.53
2022-12-14T22:24:48.644Z,99453.28
2022-12-14T22:27:15.340Z,99447.09
2022-12-14T22:29:41.954Z,99445.31
2022-12-14T22:32:11.953Z,99441.06
2022-12-14T22:34:38.781Z,99441.94
2022-12-14T22:37:05.542Z,99439.25
2022-12-14T22:39:32.123Z,99429.78
2022-12-14T22:41:59.074Z,99430.59
2022-12-14T22:44:25.785Z,99437.41
2022-12-14T22:46:52.799Z,99435.72
2022-12-14T22:49:19.837Z,99444.25
2022-12-14T22:51:46.583Z,99447.72
2022-12-14T22:54:22.588Z,99445.81
2022-12-14T22:57:04.228Z,99452.56
2022-12-14T22:59:38.844Z,99446.56
2022-12-14T23:02:05.839Z,99445.56
2022-12-14T23:04:33.147Z,99443.00
2022-12-14T23:06:59.730Z,99429.25
2022-12-14T23:09:45.293Z,99430.84
2022-12-14T23:12:30.396Z,99436.06
2022-12-14T23:15:15.815Z,99443.88
2022-12-14T23:18:01.441Z,99444.84
2022-12-14T23:20:46.720Z,99436.97
2022-12-14T23:23:32.085Z,99441.22
2022-12-14T23:26:35.432Z,99433.22
2022-12-14T23:29:20.646Z,99444.22
2022-12-14T23:32:05.868Z,99448.31
2022-12-14T23:34:51.093Z,99444.75
2022-12-14T23:37:36.073Z,99446.53
2022-12-14T23:40:21.395Z,99444.75
2022-12-14T23:43:06.670Z,99448.13
2022-12-14T23:45:51.715Z,99454.88
2022-12-14T23:48:37.105Z,99453.06
2022-12-14T23:51:22.100Z,99458.13
2022-12-14T23:54:07.520Z,99450.34
2022-12-14T23:56:54.080Z,99455.47
2022-12-14T23:59:39.226Z,99447.75
